Time;durP1;ratioP1;P1;durP2;ratioP2;P2;SDS_P1;SDS_P2;PMS_P1;PMS_P2;Temp;Humidity;BMP_temperature;BMP_pressure;BME280_temperature;BME280_humidity;BME280_pressure;Samples;Min_cycle;Max_cycle;Signal;HPM_P1;HPM_P2
2023/01/18 00:00:44;;;;;;;86.38;47.05;;;;;;;7.88;100.00;98769.13;5013674;28;20045;-78
2023/01/18 00:03:10;;;;;;;100.13;48.47;;;;;;;7.22;100.00;98670.09;5011418;28;20100;-81
2023/01/18 00:05:39;;;;;;;101.68;52.65;;;;;;;7.32;100.00;98742.09;5003357;28;20034;-80
2023/01/18 00:08:17;;;;;;;84.50;49.33;;;;;;;7.57;100.00;98751.31;5006089;28;20074;-80
2023/01/18 00:10:43;;;;;;;65.47;40.13;;;;;;;6.81;100.00;98635.88;5003157;28;20496;-78
2023/01/18 00:13:09;;;;;;;58.50;37.88;;;;;;;7.32;100.00;98724.69;5005470;28;20065;-78
2023/01/18 00:15:35;;;;;;;69.15;36.70;;;;;;;7.46;100.00;98768.88;5003462;28;20042;-79
2023/01/18 00:18:01;;;;;;;62.72;36.65;;;;;;;6.55;100.00;98639.72;5007392;28;20468;-78
2023/01/18 00:20:29;;;;;;;69.85;40.92;;;;;;;6.38;100.00;98646.84;5002601;28;20072;-79
2023/01/18 00:22:54;;;;;;;55.35;38.13;;;;;;;7.33;100.00;98773.41;5008490;28;20053;-79
2023/01/18 00:25:22;;;;;;;77.22;42.53;;;;;;;7.12;100.00;98781.50;5002680;28;20063;-82
2023/01/18 00:27:50;;;;;;;69.05;40.97;;;;;;;6.36;100.00;98645.13;4996816;28;20062;-82
2023/01/18 00:30:19;;;;;;;83.70;42.15;;;;;;;6.58;100.00;98672.69;5001228;28;20176;-81
2023/01/18 00:32:52;;;;;;;73.38;42.33;;;;;;;7.16;100.00;98764.91;5002800;28;20474;-80
2023/01/18 00:35:20;;;;;;;73.32;43.05;;;;;;;6.40;100.00;98652.91;5002571;28;20816;-79
2023/01/18 00:37:47;;;;;;;81.40;45.60;;;;;;;7.22;100.00;98782.25;5005857;28;20046;-80
2023/01/18 00:40:13;;;;;;;78.80;47.45;;;;;;;6.80;100.00;98719.31;5006088;28;20144;-82
2023/01/18 00:45:23;;;;;;;99.43;50.13;;;;;;;6.34;100.00;98637.34;5003847;28;20119;-78
2023/01/18 00:47:48;;;;;;;106.10;52.50;;;;;;;6.54;100.00;98687.47;4998660;28;20517;-80
2023/01/18 00:50:14;;;;;;;96.85;55.90;;;;;;;7.10;100.00;98770.25;4999764;28;20068;-82
2023/01/18 00:52:45;;;;;;;96.05;54.72;;;;;;;6.12;100.00;98637.59;4998366;28;20038;-80
2023/01/18 00:55:11;;;;;;;98.82;57.53;;;;;;;6.01;100.00;98639.44;5001312;28;20057;-80
2023/01/18 00:57:37;;;;;;;107.05;66.78;;;;;;;6.76;100.00;98762.78;5001297;28;20060;-83
2023/01/18 01:00:05;;;;;;;124.90;73.07;;;;;;;6.74;100.00;98752.41;5012019;28;20053;-77
2023/01/18 01:02:30;;;;;;;109.95;65.57;;;;;;;5.80;100.00;98609.25;4997283;28;20077;-79
2023/01/18 01:07:40;;;;;;;103.50;65.85;;;;;;;5.88;100.00;98607.44;4999629;28;20817;-80
2023/01/18 01:10:08;;;;;;;86.85;57.28;;;;;;;6.68;100.00;98767.25;4998276;28;20045;-80
2023/01/18 01:26:17;;;;;;;45.92;28.98;;;;;;;6.81;100.00;98674.13;5000494;28;20076;-80
2023/01/18 01:28:53;;;;;;;98.35;54.03;;;;;;;6.79;100.00;98681.09;5002643;28;20745;-78
2023/01/18 01:31:19;;;;;;;81.40;54.67;;;;;;;6.69;100.00;98696.84;5018546;28;20391;-80
2023/01/18 01:33:49;;;;;;;108.20;59.55;;;;;;;6.08;100.00;98589.00;4999746;28;20042;-80
2023/01/18 01:36:18;;;;;;;65.00;37.95;;;;;;;6.60;100.00;98698.69;5001222;28;20192;-80
2023/01/18 01:38:43;;;;;;;79.38;55.25;;;;;;;5.44;100.00;98555.84;4997399;28;20050;-81
2023/01/18 01:41:31;;;;;;;96.82;58.67;;;;;;;6.31;100.00;98698.16;4999716;28;20119;-79
2023/01/18 01:44:23;;;;;;;145.02;85.10;;;;;;;5.04;100.00;98556.19;4997740;28;20128;-77
2023/01/18 01:46:55;;;;;;;66.20;44.33;;;;;;;5.65;100.00;98666.66;4989084;28;20069;-80
2023/01/18 01:49:33;;;;;;;49.45;38.30;;;;;;;5.15;100.00;98554.38;4996358;28;20049;-80
2023/01/18 01:51:59;;;;;;;42.70;24.10;;;;;;;5.59;100.00;98659.75;4997549;28;20061;-80
2023/01/18 01:54:29;;;;;;;32.10;21.83;;;;;;;5.05;100.00;98573.50;5004390;28;20052;-77
2023/01/18 01:57:00;;;;;;;51.20;38.35;;;;;;;4.74;100.00;98508.75;5005157;28;20108;-80
2023/01/18 01:59:25;;;;;;;39.33;25.33;;;;;;;5.82;100.00;98641.31;5005509;28;20490;-78
2023/01/18 02:01:51;;;;;;;65.55;42.40;;;;;;;5.55;100.00;98592.13;5002498;28;20049;-81
2023/01/18 02:04:17;;;;;;;48.28;28.60;;;;;;;5.32;100.00;98562.00;5000644;28;20037;-83
2023/01/18 02:06:42;;;;;;;44.42;23.13;;;;;;;5.02;100.00;98498.16;5006686;28;20042;-81
2023/01/18 02:09:12;;;;;;;60.25;41.15;;;;;;;5.26;100.00;98648.72;5000869;28;20486;-82
2023/01/18 02:11:39;;;;;;;45.45;23.85;;;;;;;5.52;100.00;98637.25;5001344;28;20062;-85
2023/01/18 02:14:12;;;;;;;38.38;23.90;;;;;;;5.62;100.00;98638.03;5003457;28;20049;-84
2023/01/18 02:17:06;;;;;;;39.40;24.98;;;;;;;5.62;100.00;98638.91;5001927;28;20148;-83
2023/01/18 02:19:51;;;;;;;34.72;22.58;;;;;;;4.76;100.00;98558.97;4992685;28;20034;-83
2023/01/18 02:23:07;;;;;;;33.65;24.05;;;;;;;4.79;100.00;98636.91;4998813;28;20956;-81
2023/01/18 02:25:49;;;;;;;34.72;20.83;;;;;;;4.93;100.00;98629.03;4977569;28;20057;-82
2023/01/18 02:28:36;;;;;;;33.35;20.88;;;;;;;4.83;100.00;98630.81;5001367;28;20068;-79
2023/01/18 02:31:27;;;;;;;32.67;22.17;;;;;;;4.00;100.00;98478.06;4999689;28;20078;-79
2023/01/18 02:34:12;;;;;;;36.17;22.08;;;;;;;4.71;100.00;98635.22;5000215;28;20053;-79
2023/01/18 02:36:53;;;;;;;42.22;23.50;;;;;;;4.52;100.00;98630.13;4998764;28;20096;-79
2023/01/18 02:39:22;;;;;;;34.63;23.13;;;;;;;4.32;100.00;98630.19;4998098;28;20074;-79
2023/01/18 02:47:31;;;;;;;42.78;23.48;;;;;;;4.41;100.00;98617.16;5002512;28;20413;-80
2023/01/18 02:49:57;;;;;;;35.25;24.10;;;;;;;4.02;100.00;98533.41;4997173;28;20077;-82
2023/01/18 02:52:37;;;;;;;33.00;22.17;;;;;;;4.41;100.00;98616.31;5001141;28;20109;-82
2023/01/18 02:55:03;;;;;;;34.15;24.23;;;;;;;4.49;100.00;98614.53;4996703;28;20119;-81
2023/01/18 02:57:29;;;;;;;41.03;23.98;;;;;;;3.81;100.00;98497.16;4994756;28;20766;-80
2023/01/18 02:59:58;;;;;;;37.80;24.25;;;;;;;4.23;100.00;98542.81;4997469;28;20096;-81
2023/01/18 03:02:27;;;;;;;32.05;23.15;;;;;;;3.52;100.00;98453.19;5000057;28;20053;-79
2023/01/18 03:04:54;;;;;;;41.38;24.70;;;;;;;3.67;100.00;98473.00;5011888;28;20057;-83
2023/01/18 03:07:37;;;;;;;33.78;24.05;;;;;;;4.49;100.00;98590.31;5006544;28;20030;-81
2023/01/18 03:10:07;;;;;;;39.90;24.05;;;;;;;3.47;100.00;98435.06;5004120;28;20073;-81
2023/01/18 03:12:46;;;;;;;66.70;25.15;;;;;;;3.52;100.00;98440.22;5004522;28;20137;-83
2023/01/18 03:15:49;;;;;;;41.03;23.30;;;;;;;4.39;100.00;98581.69;4996813;28;20105;-82
2023/01/18 03:19:00;;;;;;;28.98;20.98;;;;;;;4.34;100.00;98554.91;5005596;28;20095;-79
2023/01/18 03:21:40;;;;;;;29.65;21.10;;;;;;;4.56;100.00;98577.28;5006824;28;20049;-80
2023/01/18 03:24:07;;;;;;;38.35;20.60;;;;;;;4.36;100.00;98567.00;5001604;28;20426;-79
2023/01/18 03:26:38;;;;;;;39.88;20.77;;;;;;;4.22;100.00;98542.84;5004750;28;20145;-80
2023/01/18 03:35:08;;;;;;;30.02;21.30;;;;;;;4.53;100.00;98566.06;5002699;28;20060;-80
2023/01/18 03:37:40;;;;;;;30.10;20.10;;;;;;;4.39;100.00;98520.25;4997596;28;20050;-81
2023/01/18 03:40:09;;;;;;;42.97;21.70;;;;;;;4.67;100.00;98566.81;4999184;28;20042;-80
2023/01/18 03:42:42;;;;;;;37.28;21.67;;;;;;;4.74;100.00;98546.88;4997112;28;20050;-81
2023/01/18 03:45:32;;;;;;;35.03;21.23;;;;;;;4.63;100.00;98533.94;5002946;28;20065;-80
2023/01/18 03:47:58;;;;;;;37.30;22.08;;;;;;;4.02;100.00;98408.84;5002770;28;20104;-82
2023/01/18 03:50:40;;;;;;;32.80;20.17;;;;;;;4.58;100.00;98577.28;5002534;28;20509;-80
2023/01/18 03:53:15;;;;;;;37.97;22.35;;;;;;;4.71;100.00;98545.16;4999826;28;20120;-85
2023/01/18 03:55:49;;;;;;;36.30;20.60;;;;;;;4.22;100.00;98509.97;5007339;28;20029;-87
2023/01/18 03:58:18;;;;;;;;;;;;;;;4.48;100.00;98581.66;5010512;28;20042;-82
2023/01/18 04:00:44;;;;;;;39.25;19.70;;;;;;;3.59;100.00;98441.94;5005673;28;19932;-83
2023/01/18 04:03:09;;;;;;;33.55;23.55;;;;;;;4.19;100.00;98559.31;5002251;28;20085;-81
2023/01/18 04:05:36;;;;;;;31.58;19.77;;;;;;;4.34;100.00;98579.13;5002811;28;20042;-80
2023/01/18 04:08:01;;;;;;;34.38;22.17;;;;;;;4.05;100.00;98518.69;5008548;28;20045;-78
2023/01/18 04:10:26;;;;;;;43.20;22.67;;;;;;;3.68;100.00;98482.53;5008617;28;20096;-81
2023/01/18 04:12:52;;;;;;;26.52;19.10;;;;;;;4.20;100.00;98549.78;4999854;28;20057;-79
2023/01/18 04:15:18;;;;;;;37.75;21.95;;;;;;;4.36;100.00;98559.22;5005051;28;20061;-81
2023/01/18 04:17:44;;;;;;;41.92;21.52;;;;;;;3.51;100.00;98417.75;5003774;28;20050;-82
2023/01/18 04:20:09;;;;;;;32.55;21.05;;;;;;;4.44;100.00;98577.34;5003507;28;20057;-82
2023/01/18 04:22:35;;;;;;;29.83;20.27;;;;;;;3.49;100.00;98429.84;5005427;28;20370;-84
2023/01/18 04:25:00;;;;;;;31.63;19.70;;;;;;;3.80;100.00;98485.06;5003412;28;20038;-83
2023/01/18 04:27:26;;;;;;;29.17;19.20;;;;;;;3.69;100.00;98476.47;5009939;28;20536;-81
2023/01/18 04:29:52;;;;;;;31.52;19.77;;;;;;;3.51;100.00;98449.75;5004781;28;20120;-83
2023/01/18 04:32:17;;;;;;;29.75;21.83;;;;;;;4.01;100.00;98539.47;4998918;28;20065;-84
2023/01/18 04:34:42;;;;;;;31.23;20.00;;;;;;;4.26;100.00;98577.44;5001526;28;20034;-84
2023/01/18 04:37:08;;;;;;;24.92;18.35;;;;;;;4.15;100.00;98574.91;5008784;28;20070;-80
2023/01/18 04:39:34;;;;;;;33.22;17.45;;;;;;;4.24;100.00;98595.63;4999588;28;20409;-80
2023/01/18 04:41:59;;;;;;;33.88;20.98;;;;;;;4.30;100.00;98589.53;5009876;28;20121;-81
2023/01/18 04:44:25;;;;;;;44.50;20.58;;;;;;;4.15;100.00;98580.94;5004393;28;20060;-81
2023/01/18 04:46:50;;;;;;;28.35;20.08;;;;;;;4.29;100.00;98591.28;4994156;28;20050;-81
2023/01/18 04:49:16;;;;;;;37.40;21.52;;;;;;;4.27;100.00;98594.75;5006777;28;20673;-81
2023/01/18 04:51:45;;;;;;;29.42;20.33;;;;;;;4.10;100.00;98568.88;5001052;28;20457;-80
2023/01/18 04:54:13;;;;;;;37.00;20.23;;;;;;;3.41;100.00;98471.38;4998018;28;20049;-80
2023/01/18 04:56:38;;;;;;;44.83;22.35;;;;;;;3.38;100.00;98454.09;5007082;28;20064;-81
2023/01/18 04:59:04;;;;;;;31.52;20.55;;;;;;;4.15;100.00;98598.25;5005216;28;20084;-81
2023/01/18 05:01:29;;;;;;;38.65;20.58;;;;;;;4.14;100.00;98565.38;5004068;28;20118;-79
2023/01/18 05:03:55;;;;;;;36.88;19.55;;;;;;;4.40;100.00;98607.66;5014162;28;20030;-84
2023/01/18 05:06:23;;;;;;;27.35;19.60;;;;;;;3.20;100.00;98388.50;4997418;28;20057;-84
2023/01/18 05:08:48;;;;;;;28.27;18.77;;;;;;;4.23;100.00;98573.97;5000206;28;20057;-85
2023/01/18 05:11:16;;;;;;;46.47;20.65;;;;;;;4.35;100.00;98612.00;5009464;28;20053;-83
2023/01/18 05:13:43;;;;;;;27.80;19.95;;;;;;;4.57;100.00;98614.53;5006488;28;20273;-83
2023/01/18 05:16:22;;;;;;;35.75;21.08;;;;;;;4.43;100.00;98628.41;5012863;28;20057;-85
2023/01/18 05:18:47;;;;;;;31.50;20.33;;;;;;;3.65;100.00;98462.63;5002307;28;20064;-80
2023/01/18 05:21:13;;;;;;;35.80;20.73;;;;;;;3.91;100.00;98482.41;4993194;28;20041;-80
2023/01/18 05:23:39;;;;;;;44.20;20.30;;;;;;;4.39;100.00;98598.13;5003453;28;20089;-81
2023/01/18 05:26:13;;;;;;;33.35;20.27;;;;;;;4.61;100.00;98619.69;5001227;28;20502;-78
2023/01/18 05:28:39;;;;;;;;;;;;;;;4.83;100.00;98628.22;5005635;28;20133;-80
2023/01/18 05:31:04;;;;;;;31.70;17.80;;;;;;;4.64;100.00;98624.88;4998787;28;19928;-78
2023/01/18 05:33:30;;;;;;;30.92;19.30;;;;;;;3.98;100.00;98505.75;5008407;28;20057;-83
2023/01/18 05:35:55;;;;;;;28.02;17.48;;;;;;;4.78;100.00;98629.13;4996250;28;20388;-76
2023/01/18 05:38:22;;;;;;;27.65;18.70;;;;;;;4.78;100.00;98629.97;5000632;28;20453;-76
2023/01/18 05:40:53;;;;;;;27.38;18.25;;;;;;;4.85;100.00;98629.06;5001598;28;20189;-76
2023/01/18 05:43:22;;;;;;;30.30;19.67;;;;;;;4.93;100.00;98613.44;5001589;28;20053;-78
2023/01/18 05:45:48;;;;;;;28.95;19.05;;;;;;;5.06;100.00;98646.28;4993770;28;20098;-79
2023/01/18 05:48:14;;;;;;;26.73;19.15;;;;;;;5.26;100.00;98650.47;4998601;28;20136;-77
2023/01/18 05:50:42;;;;;;;27.05;17.35;;;;;;;5.19;100.00;98653.97;4994650;28;20056;-77
2023/01/18 05:53:08;;;;;;;34.13;18.65;;;;;;;5.19;100.00;98656.59;5004327;28;20077;-76
2023/01/18 05:55:33;;;;;;;32.13;19.77;;;;;;;4.98;100.00;98629.84;5004800;28;20042;-77
2023/01/18 05:57:58;;;;;;;34.30;19.45;;;;;;;4.17;100.00;98470.19;4995282;28;20048;-77
2023/01/18 06:00:24;;;;;;;47.67;24.75;;;;;;;5.31;100.00;98655.63;4998907;28;20050;-78
2023/01/18 06:02:51;;;;;;;47.08;25.92;;;;;;;5.18;100.00;98640.13;4998111;28;20064;-77
2023/01/18 06:05:17;;;;;;;33.95;23.05;;;;;;;5.29;100.00;98640.03;4998407;28;20058;-76
2023/01/18 06:07:42;;;;;;;45.90;24.98;;;;;;;4.59;100.00;98514.09;4991513;28;20033;-76
2023/01/18 06:10:08;;;;;;;46.40;23.08;;;;;;;5.31;100.00;98651.28;4992581;28;20034;-80
2023/01/18 06:12:34;;;;;;;38.55;23.60;;;;;;;5.23;100.00;98630.56;4986308;28;20050;-79
2023/01/18 06:14:59;;;;;;;41.50;22.67;;;;;;;5.64;100.00;98655.38;4995536;28;20092;-75
2023/01/18 06:17:25;;;;;;;52.72;28.27;;;;;;;5.78;100.00;98683.84;4995958;28;20045;-76
2023/01/18 06:19:51;;;;;;;87.95;48.83;;;;;;;5.04;100.00;98575.25;4998461;28;20156;-78
2023/01/18 06:22:16;;;;;;;96.35;45.38;;;;;;;5.19;100.00;98614.97;5000320;28;20112;-78
2023/01/18 06:24:42;;;;;;;48.78;30.45;;;;;;;4.74;100.00;98563.31;4992633;28;20068;-77
2023/01/18 06:27:07;;;;;;;50.90;32.65;;;;;;;5.08;100.00;98605.53;5002394;28;20046;-75
2023/01/18 06:29:33;;;;;;;50.33;30.08;;;;;;;4.94;100.00;98588.28;4998390;28;20108;-77
2023/01/18 06:31:58;;;;;;;50.88;34.50;;;;;;;5.15;100.00;98608.06;5001265;28;20049;-78
2023/01/18 06:34:24;;;;;;;54.60;34.78;;;;;;;5.93;100.00;98717.56;4996325;28;20038;-78
2023/01/18 06:36:49;;;;;;;72.50;41.47;;;;;;;5.26;100.00;98617.53;4993195;28;20074;-77
2023/01/18 06:39:15;;;;;;;55.47;35.95;;;;;;;5.55;100.00;98733.50;4999751;28;20057;-77
2023/01/18 06:41:40;;;;;;;54.20;32.10;;;;;;;4.73;100.00;98573.72;4996688;28;20776;-77
2023/01/18 06:44:06;;;;;;;58.20;28.52;;;;;;;5.57;100.00;98695.34;5000939;28;20054;-83
2023/01/18 06:46:31;;;;;;;74.93;33.60;;;;;;;5.90;100.00;98719.38;5002653;28;20056;-79
2023/01/18 06:48:57;;;;;;;66.32;37.75;;;;;;;5.95;100.00;98727.13;4997583;28;20033;-77
2023/01/18 06:51:23;;;;;;;84.85;42.10;;;;;;;6.00;100.00;98743.59;4995183;28;20045;-80
2023/01/18 06:53:48;;;;;;;81.03;38.53;;;;;;;5.34;100.00;98608.78;5003946;28;20073;-82
2023/01/18 06:56:15;;;;;;;101.15;45.55;;;;;;;5.03;100.00;98601.22;5004538;28;20184;-79
2023/01/18 06:58:41;;;;;;;121.07;45.80;;;;;;;5.19;100.00;98627.97;4993711;28;20442;-79
2023/01/18 07:01:07;;;;;;;87.63;40.33;;;;;;;5.17;100.00;98603.72;5009556;28;20050;-78
2023/01/18 07:03:32;;;;;;;83.75;41.92;;;;;;;5.65;100.00;98657.09;5008515;28;20133;-80
2023/01/18 07:06:00;;;;;;;77.45;45.33;;;;;;;5.77;100.00;98665.69;5005656;28;20142;-79
2023/01/18 07:08:29;;;;;;;91.95;53.92;;;;;;;6.19;100.00;98734.75;5007799;28;20077;-80
2023/01/18 07:10:56;;;;;;;63.60;34.13;;;;;;;6.00;100.00;98645.53;5003511;28;20057;-79
2023/01/18 07:13:22;;;;;;;37.15;25.65;;;;;;;6.51;100.00;98644.97;5006383;28;20371;-78
2023/01/18 07:15:57;;;;;;;49.40;28.27;;;;;;;7.13;100.00;98687.59;5010595;28;20046;-79
2023/01/18 07:18:23;;;;;;;36.33;22.67;;;;;;;7.45;100.00;98667.13;5012615;28;20128;-77
2023/01/18 07:21:00;;;;;;;40.63;21.10;;;;;;;8.42;100.00;98792.63;5007924;28;20137;-78
2023/01/18 07:23:26;;;;;;;35.83;21.08;;;;;;;8.70;100.00;98767.75;5003938;28;20050;-79
2023/01/18 07:26:06;;;;;;;29.13;17.27;;;;;;;9.39;100.00;98789.88;5002921;28;20160;-78
2023/01/18 07:28:33;;;;;;;28.70;15.25;;;;;;;10.30;100.00;98841.09;5016947;28;20050;-79
2023/01/18 07:30:59;;;;;;;24.50;13.43;;;;;;;10.65;100.00;98856.00;5006879;28;20030;-84
2023/01/18 07:33:25;;;;;;;18.65;10.07;;;;;;;10.54;100.00;98774.94;5012120;28;20577;-80
2023/01/18 07:35:52;;;;;;;24.13;10.65;;;;;;;11.20;100.00;98895.66;5010662;28;20046;-76
2023/01/18 07:38:19;;;;;;;21.67;8.35;;;;;;;11.47;100.00;98903.66;5008540;28;20358;-75
2023/01/18 07:40:45;;;;;;;16.35;6.53;;;;;;;12.05;100.00;98965.09;5003273;28;20197;-76
2023/01/18 07:43:12;;;;;;;26.23;8.85;;;;;;;11.38;100.00;98878.56;4997423;28;20074;-79
2023/01/18 07:45:37;;;;;;;16.67;5.63;;;;;;;12.38;100.00;99010.56;4995195;28;20057;-79
2023/01/18 07:48:04;;;;;;;20.30;6.63;;;;;;;11.95;100.00;98896.16;4995622;28;20043;-79
2023/01/18 07:50:29;;;;;;;22.85;6.18;;;;;;;10.55;100.00;98629.78;4997896;28;20046;-79
2023/01/18 07:52:55;;;;;;;21.75;6.00;;;;;;;12.97;100.00;99025.44;5002868;28;20046;-80
2023/01/18 07:55:21;;;;;;;25.10;6.65;;;;;;;13.14;100.00;99037.19;5003418;28;20517;-80
2023/01/18 07:57:46;;;;;;;17.00;4.63;;;;;;;12.51;100.00;98903.22;5003305;28;20518;-79
2023/01/18 08:00:13;;;;;;;13.50;4.72;;;;;;;13.44;100.00;99017.75;4998873;28;20156;-76
2023/01/18 08:02:39;;;;;;;14.02;4.28;;;;;;;12.95;100.00;98963.22;5002586;28;20050;-79
2023/01/18 08:05:08;;;;;;;21.23;5.15;;;;;;;12.97;100.00;98949.09;5007141;28;20046;-78
2023/01/18 08:07:33;;;;;;;21.15;4.78;;;;;;;13.28;100.00;98948.94;5004177;28;20034;-79
2023/01/18 08:09:59;;;;;;;19.15;4.97;;;;;;;14.02;100.00;99080.75;5007606;28;20044;-78
2023/01/18 08:12:24;;;;;;;20.75;5.88;;;;;;;13.28;100.00;98950.69;5009379;28;20049;-77
2023/01/18 08:14:50;;;;;;;12.63;3.28;;;;;;;13.43;100.00;98959.84;5006487;28;20037;-79
2023/01/18 08:17:15;;;;;;;13.70;3.50;;;;;;;13.82;100.00;99014.69;5005299;28;20094;-80
2023/01/18 08:19:40;;;;;;;12.13;3.40;;;;;;;13.87;100.00;98989.88;5003870;28;20032;-75
2023/01/18 08:22:07;;;;;;;16.13;4.43;;;;;;;13.79;100.00;98970.84;5008121;28;20034;-75
2023/01/18 08:24:32;;;;;;;13.27;4.65;;;;;;;14.00;100.00;99003.50;5004484;28;20064;-75
2023/01/18 08:26:58;;;;;;;16.73;3.08;;;;;;;13.99;100.00;98990.34;5008125;28;21102;-75
2023/01/18 08:29:23;;;;;;;11.27;3.85;;;;;;;13.90;100.00;98976.56;5005946;28;20045;-76
2023/01/18 08:31:53;;;;;;;11.20;3.55;;;;;;;13.85;100.00;98967.97;5004515;28;20378;-74
2023/01/18 08:34:19;;;;;;;21.02;3.83;;;;;;;13.88;100.00;98956.44;5011947;28;20122;-75
2023/01/18 08:36:44;;;;;;;13.85;4.18;;;;;;;14.75;100.00;99085.16;5011464;28;20077;-74
2023/01/18 08:39:12;;;;;;;24.77;4.85;;;;;;;14.61;100.00;99055.78;5009778;28;20128;-76
2023/01/18 08:41:37;;;;;;;12.95;4.20;;;;;;;13.85;100.00;98949.50;4999634;28;20157;-76
2023/01/18 08:44:03;;;;;;;17.08;3.70;;;;;;;14.65;100.00;99075.84;5001998;28;20545;-77
2023/01/18 08:46:28;;;;;;;16.67;5.53;;;;;;;14.02;100.00;98963.84;5002880;28;20521;-78
2023/01/18 08:48:56;;;;;;;16.80;3.80;;;;;;;14.80;100.00;99074.41;5006810;28;20026;-74
2023/01/18 08:51:22;;;;;;;14.35;4.20;;;;;;;14.87;100.00;99078.53;4993267;28;20090;-77
2023/01/18 08:53:50;;;;;;;18.52;5.68;;;;;;;14.97;100.00;99065.81;5003484;28;20061;-76
2023/01/18 08:56:16;;;;;;;14.77;3.65;;;;;;;15.05;100.00;99079.56;4994559;28;20404;-75
2023/01/18 08:58:42;;;;;;;9.63;2.58;;;;;;;15.05;100.00;99081.34;5012996;28;20041;-77
2023/01/18 09:01:09;;;;;;;46.63;26.38;;;;;;;15.73;100.00;98862.59;5008781;28;20050;-74
2023/01/18 09:03:36;;;;;;;204.73;109.30;;;;;;;17.23;100.00;99029.34;4992891;28;20136;-76
2023/01/18 09:06:03;;;;;;;167.25;100.15;;;;;;;19.37;100.00;99075.47;5002433;28;20085;-74
2023/01/18 09:08:30;;;;;;;97.20;51.30;;;;;;;18.37;100.00;99058.03;5005395;28;20066;-76
2023/01/18 09:11:03;;;;;;;136.98;81.72;;;;;;;19.74;100.00;99097.31;5001207;28;20145;-75
2023/01/18 09:13:29;;;;;;;;;;;;;;;18.60;100.00;99099.28;5002857;28;20049;-75
2023/01/18 09:16:03;;;;;;;29.15;16.52;;;;;;;18.76;100.00;99105.47;5004718;28;20293;-75
2023/01/18 09:18:29;;;;;;;48.72;23.77;;;;;;;18.77;100.00;99109.88;5007362;28;20087;-74
2023/01/18 09:20:58;;;;;;;24.73;10.00;;;;;;;18.31;100.00;99032.66;5001177;28;20065;-79
2023/01/18 09:23:23;;;;;;;31.67;12.98;;;;;;;19.52;100.00;99094.16;5001306;28;20702;-75
2023/01/18 09:26:11;;;;;;;21.25;7.78;;;;;;;18.57;98.70;99089.69;5003788;28;20052;-74
2023/01/18 09:28:37;;;;;;;27.02;7.70;;;;;;;19.74;93.65;99091.16;4998774;28;20099;-76
2023/01/18 09:31:07;;;;;;;13.18;5.38;;;;;;;19.61;89.44;98998.66;5008145;28;20569;-75
2023/01/18 09:33:33;;;;;;;14.80;5.45;;;;;;;20.16;88.08;99097.50;5018944;28;20092;-75
2023/01/18 09:36:01;;;;;;;16.33;4.70;;;;;;;19.90;92.36;99091.06;4990328;28;20462;-75
2023/01/18 09:38:29;;;;;;;17.63;4.30;;;;;;;18.89;89.30;98904.53;5003060;28;20041;-75
2023/01/18 09:40:55;;;;;;;14.52;3.00;;;;;;;17.31;98.44;99000.69;5003391;28;20056;-75
2023/01/18 09:43:30;;;;;;;9.60;3.55;;;;;;;16.53;100.00;99007.09;5007274;28;20038;-75
2023/01/18 09:45:55;;;;;;;13.77;3.28;;;;;;;16.75;100.00;99100.50;5002106;28;20073;-76
2023/01/18 09:48:36;;;;;;;13.63;3.25;;;;;;;16.59;100.00;99067.72;5001954;28;20054;-76
2023/01/18 09:51:08;;;;;;;10.18;2.72;;;;;;;16.74;100.00;99114.69;5002497;28;20576;-76
2023/01/18 09:53:51;;;;;;;13.32;3.38;;;;;;;16.76;100.00;99096.06;5005571;28;20041;-77
2023/01/18 09:56:24;;;;;;;10.00;3.30;;;;;;;16.82;100.00;99104.63;5000212;28;20689;-76
2023/01/18 09:59:05;;;;;;;12.50;3.55;;;;;;;16.79;100.00;99104.78;4999581;28;20050;-78
2023/01/18 10:01:33;;;;;;;11.30;3.13;;;;;;;16.17;100.00;98990.19;4998874;28;20045;-76
2023/01/18 10:04:07;;;;;;;11.23;3.53;;;;;;;16.37;100.00;99014.91;5005669;28;20172;-77
2023/01/18 10:07:00;;;;;;;7.78;3.45;;;;;;;16.72;100.00;99075.97;4999557;28;20104;-78
2023/01/18 10:09:30;;;;;;;37.00;5.50;;;;;;;16.96;100.00;99103.97;5003054;28;20069;-77
2023/01/18 10:11:59;;;;;;;9.73;2.47;;;;;;;17.31;100.00;99109.38;5009732;28;20062;-77
2023/01/18 10:14:49;;;;;;;22.63;4.43;;;;;;;17.51;100.00;99109.28;5003887;28;20045;-77
2023/01/18 10:17:19;;;;;;;12.52;3.72;;;;;;;17.17;100.00;99030.53;5009126;28;20053;-77
2023/01/18 10:19:45;;;;;;;9.02;3.22;;;;;;;17.96;100.00;99130.06;5000503;28;20045;-79
2023/01/18 10:22:31;;;;;;;11.98;4.53;;;;;;;18.10;100.00;99124.94;5004837;28;20362;-78
2023/01/18 10:25:09;;;;;;;13.23;2.47;;;;;;;17.63;100.00;99045.91;5012097;28;20054;-78
2023/01/18 10:28:06;;;;;;;10.77;3.00;;;;;;;18.08;100.00;99140.06;5001170;28;20050;-79
2023/01/18 10:30:56;;;;;;;12.30;3.55;;;;;;;18.10;100.00;99116.97;4993305;28;20103;-79
2023/01/18 10:33:29;;;;;;;6.80;2.17;;;;;;;17.49;100.00;99006.84;5003905;28;20111;-78
2023/01/18 10:36:05;;;;;;;15.38;3.58;;;;;;;17.76;100.00;99040.84;5001285;28;20049;-76
2023/01/18 10:38:31;;;;;;;14.40;2.78;;;;;;;18.05;100.00;99124.28;5005833;28;20490;-81
2023/01/18 10:40:59;;;;;;;15.52;3.92;;;;;;;18.00;100.00;99082.06;5005922;28;20160;-79
2023/01/18 10:43:27;;;;;;;10.20;3.22;;;;;;;17.81;100.00;99049.44;5005063;28;20763;-78
2023/01/18 10:45:53;;;;;;;13.70;3.47;;;;;;;17.67;100.00;99010.31;5004489;28;20053;-78
2023/01/18 10:48:33;;;;;;;10.02;3.15;;;;;;;18.47;100.00;99118.56;4990487;28;20065;-75
2023/01/18 10:51:05;;;;;;;9.95;3.05;;;;;;;18.00;100.00;99022.81;5001936;28;20148;-77
2023/01/18 10:53:34;;;;;;;17.15;4.38;;;;;;;18.95;93.21;99139.91;5005758;28;20096;-78
2023/01/18 10:56:20;;;;;;;13.80;4.13;;;;;;;19.23;91.04;99133.06;5010258;28;20066;-76
2023/01/18 10:58:59;;;;;;;15.50;2.92;;;;;;;19.31;88.17;99144.13;5002880;28;20458;-79
2023/01/18 11:01:32;;;;;;;17.40;4.18;;;;;;;18.75;88.41;99051.47;4996653;28;20033;-76
2023/01/18 11:04:05;;;;;;;12.95;3.80;;;;;;;19.40;86.17;99139.13;5004569;28;20449;-76
2023/01/18 11:06:43;;;;;;;12.52;3.50;;;;;;;18.70;85.39;99039.38;5004144;28;20050;-76
2023/01/18 11:09:54;;;;;;;7.13;2.25;;;;;;;19.10;84.97;99125.75;5008740;28;20045;-76
2023/01/18 11:12:41;;;;;;;22.23;3.70;;;;;;;18.75;89.42;99045.28;4995776;28;20403;-77
2023/01/18 11:15:12;;;;;;;14.52;3.75;;;;;;;19.07;89.63;99117.09;5000852;28;20099;-75
2023/01/18 11:17:59;;;;;;;7.43;2.17;;;;;;;18.70;88.85;99048.19;4995891;28;20062;-75
2023/01/18 11:20:33;;;;;;;11.30;2.97;;;;;;;18.88;91.74;99066.78;4998116;28;20505;-77
2023/01/18 11:23:07;;;;;;;11.95;2.65;;;;;;;19.09;88.82;99155.97;5002623;28;20073;-78
2023/01/18 11:25:36;;;;;;;20.13;3.88;;;;;;;19.12;91.77;99146.94;5007858;28;20045;-75
2023/01/18 11:28:03;;;;;;;15.43;3.03;;;;;;;18.39;91.45;99037.56;5012133;28;20029;-75
2023/01/18 11:30:29;;;;;;;15.80;2.95;;;;;;;18.46;94.35;99061.03;5009872;28;20128;-75
2023/01/18 11:32:58;;;;;;;13.95;2.67;;;;;;;18.20;91.05;99035.03;5005830;28;20046;-76
2023/01/18 11:35:32;;;;;;;14.77;3.58;;;;;;;18.76;92.56;99143.56;5011442;28;20065;-76
2023/01/18 11:38:00;;;;;;;13.00;3.63;;;;;;;18.02;93.43;99043.03;5004997;28;20087;-79
2023/01/18 11:40:28;;;;;;;15.05;3.92;;;;;;;17.97;96.21;99036.25;5001868;28;20038;-78
2023/01/18 11:43:19;;;;;;;9.48;2.85;;;;;;;18.00;96.99;99041.38;5006732;28;20149;-81
2023/01/18 11:45:58;;;;;;;8.02;2.25;;;;;;;18.58;96.66;99156.97;5008377;28;20604;-78
2023/01/18 11:48:56;;;;;;;11.98;2.97;;;;;;;18.69;98.78;99163.41;5001821;28;20133;-79
2023/01/18 11:51:50;;;;;;;17.70;3.45;;;;;;;18.46;96.03;99159.31;5002922;28;20121;-81
2023/01/18 11:54:38;;;;;;;6.68;2.17;;;;;;;18.43;98.88;99161.28;5001286;28;20046;-79
2023/01/18 11:57:05;;;;;;;9.90;2.65;;;;;;;18.40;95.98;99162.28;5006080;28;20068;-81
2023/01/18 11:59:34;;;;;;;19.85;3.42;;;;;;;18.45;98.82;99159.38;5005763;28;20080;-80
2023/01/18 12:02:18;;;;;;;15.40;3.45;;;;;;;18.38;96.17;99176.59;5010769;28;20142;-80
2023/01/18 12:04:46;;;;;;;13.05;3.15;;;;;;;18.28;98.00;99177.06;4997406;28;20038;-80